WetterOnline ( https://www.wetteronline.de )

Wetter aktuell Gießen

Aktuelles Wetter: Gießen (195m)

6-stündlich | Neueste Meldungen
Ortszeit Temperatur Wetter
So, 25.10. 13:00 15.2° C leicht bewölkt
So, 25.10. 7:00 9.9° C leicht bewölkt
So, 25.10. 2:00 12.5° C bedeckt
Sa, 24.10. 20:00 13.4° C bedeckt
Sa, 24.10. 14:00 15.1° C bewölkt
Sa, 24.10. 8:00 9.1° C bewölkt
Sa, 24.10. 2:00 9.7° C Nebel
Fr, 23.10. 20:00 13.6° C leichter Regen
Ortszeit Temperatur Wetter
So, 25.10. 14:30 15.1° C bedeckt
So, 25.10. 14:20 15.1° C bedeckt
So, 25.10. 14:10 15.2° C bewölkt
So, 25.10. 14:00 15.4° C bewölkt
So, 25.10. 13:50 15.4° C bewölkt
So, 25.10. 13:40 15.6° C bewölkt
So, 25.10. 13:30 15.5° C bewölkt
So, 25.10. 13:00 15.2° C leicht bewölkt
Ortszeit Relative Feuchte Sichtweite
So, 25.10. 13:00 63% 45 km
So, 25.10. 7:00 83% 60 km
So, 25.10. 2:00 76% 60 km
Sa, 24.10. 20:00 72% 55 km
Sa, 24.10. 14:00 60% 65 km
Sa, 24.10. 8:00 97% 4.4 km
Sa, 24.10. 2:00 97% <100 m
Fr, 23.10. 20:00 92% 21 km
Ortszeit Relative Feuchte Sichtweite
So, 25.10. 14:30 63% 45 km
So, 25.10. 14:20 63% -
So, 25.10. 14:10 62% -
So, 25.10. 14:00 63% >70 km
So, 25.10. 13:50 63% -
So, 25.10. 13:40 62% -
So, 25.10. 13:30 63% 65 km
So, 25.10. 13:00 63% 45 km
Ortszeit Niederschlagsmenge Niederschlagsart
So, 25.10. 13:00 0.0 l/m2 in 6 Std. -
So, 25.10. 7:00 0.0 l/m2 in 12 Std. -
So, 25.10. 2:00 0.0 l/m2 in 6 Std. -
Sa, 24.10. 20:00 0.0 l/m2 in 12 Std. -
Sa, 24.10. 14:00 0.0 l/m2 in 6 Std. -
Sa, 24.10. 8:00 0.1 l/m2 in 12 Std. Regen
Sa, 24.10. 2:00 0.1 l/m2 in 6 Std. Regen
Fr, 23.10. 20:00 4 l/m2 in 12 Std. Regen
Ortszeit Niederschlagsmenge Niederschlagsart
So, 25.10. 14:30 0.0 l/m2 in 1 Std. -
So, 25.10. 14:20 keine Meldung -
So, 25.10. 14:10 keine Meldung -
So, 25.10. 14:00 0.0 l/m2 in 1 Std. -
So, 25.10. 13:50 keine Meldung -
So, 25.10. 13:40 keine Meldung -
So, 25.10. 13:30 0.0 l/m2 in 1 Std. -
So, 25.10. 13:00 0.0 l/m2 in 1 Std. -
Ortszeit Stärke Spitze Richtung
km/h Bft. km/h Grad Sektor
So, 25.10. 13:00 25 4 40 160° S
So, 25.10. 7:00 13 3 37 150° SO
So, 25.10. 2:00 17 3 39 160° S
Sa, 24.10. 20:00 17 3 43 170° S
Sa, 24.10. 14:00 30 5 56 210° SW
Sa, 24.10. 8:00 4 1 14 130° SO
Sa, 24.10. 2:00 4 1 25 80° O
Fr, 23.10. 20:00 7 2 20 210° SW
Ortszeit Stärke Spitze Richtung
km/h Bft. km/h Grad Sektor
So, 25.10. 14:30 17 3 30 160° S
So, 25.10. 14:20 17 3 - 160° S
So, 25.10. 14:10 18 3 - 160° S
So, 25.10. 14:00 20 4 31 170° S
So, 25.10. 13:50 20 4 - 170° S
So, 25.10. 13:40 20 4 - 170° S
So, 25.10. 13:30 22 4 32 170° S
So, 25.10. 13:00 25 4 40 160° S
Ortszeit Untergrenze Bedeckung Gattung
total tief tief mittel hoch
So, 25.10. 13:00 1050 m 3/8 3/8 - - -
So, 25.10. 7:00 8100 m 3/8 0/8 - - -
So, 25.10. 2:00 1020 m 8/8 8/8 - - -
Sa, 24.10. 20:00 960 m 8/8 8/8 - - -
Sa, 24.10. 14:00 2100 m 7/8 7/8 - - -
Sa, 24.10. 8:00 630 m 7/8 7/8 - - -
Sa, 24.10. 2:00 <30 m 2/8 0/8 - - -
Fr, 23.10. 20:00 750 m 7/8 3/8 - - -
Ortszeit Bedeckungsgrad in Achtel und Wolkenuntergrenze
So, 25.10. 14:30 7(1230m) 8(1500m)
So, 25.10. 14:20 7(1230m) 8(1500m)
So, 25.10. 14:10 3(1110m) 7(1380m) 8(4800m)
So, 25.10. 14:00 4(1050m) 7(1380m) 7(2700m)
So, 25.10. 13:50 4(1050m) 7(1380m) 7(2700m)
So, 25.10. 13:40 5(1050m) 7(2700m) 7(4800m)
So, 25.10. 13:30 4(1110m) 7(3000m) 8(4800m)
So, 25.10. 13:00 1(1050m) 3(2700m) 5(4500m)
Ortszeit Luftdruck NN (hPa) Tendenz (hPa in 3 Std.)
So, 25.10. 13:00 1006 - 2,0
So, 25.10. 7:00 1009 - 0,7
So, 25.10. 2:00 1012 - 1,2
Sa, 24.10. 20:00 1014 - 0,4
Sa, 24.10. 14:00 1015 - 0,3
Sa, 24.10. 8:00 1015 + 0,4
Sa, 24.10. 2:00 1014 + 0,4
Fr, 23.10. 20:00 1012 + 1,4
Ortszeit Luftdruck NN (hPa) Tendenz (hPa in 3 Std.)
So, 25.10. 14:30 1005 - 1,8
So, 25.10. 14:20 1005 keine Meldung
So, 25.10. 14:10 1005 keine Meldung
So, 25.10. 14:00 1005 - 1,9
So, 25.10. 13:50 1005 keine Meldung
So, 25.10. 13:40 1005 keine Meldung
So, 25.10. 13:30 1005 - 2,1
So, 25.10. 13:00 1006 - 2,0
Ortszeit Schneehöhe (cm)
So, 25.10. 13:00 0
So, 25.10. 7:00 0
So, 25.10. 2:00 0
Sa, 24.10. 20:00 0
Sa, 24.10. 14:00 0
Sa, 24.10. 8:00 0
Sa, 24.10. 2:00 0
Fr, 23.10. 20:00 0
Ortszeit Schneehöhe (cm)
So, 25.10. 14:30 0
So, 25.10. 14:20 0
So, 25.10. 14:10 0
So, 25.10. 14:00 0
So, 25.10. 13:50 0
So, 25.10. 13:40 0
So, 25.10. 13:30 0
So, 25.10. 13:00 0
Link zu dieser Seite / Seite empfehlen

Das Wetter in ...